Time;durP1;ratioP1;P1;durP2;ratioP2;P2;SDS_P1;SDS_P2;PMS_P1;PMS_P2;Temp;Humidity;BMP_temperature;BMP_pressure;BME280_temperature;BME280_humidity;BME280_pressure;Samples;Min_cycle;Max_cycle;Signal;HPM_P1;HPM_P2
2021/04/20 00:01:54;;;;;;;20.70;18.05;;;8.70;99.90;;;;;;5054319;28;20303;-41
2021/04/20 00:04:21;;;;;;;19.17;17.17;;;8.70;99.90;;;;;;5054126;28;20261;-41
2021/04/20 00:06:48;;;;;;;18.75;16.90;;;8.70;99.90;;;;;;5054144;28;20595;-41
2021/04/20 00:09:16;;;;;;;19.58;17.58;;;8.70;99.90;;;;;;5054152;28;20306;-41
2021/04/20 00:11:43;;;;;;;19.20;17.08;;;8.70;99.90;;;;;;5054460;28;20299;-41
2021/04/20 00:14:13;;;;;;;20.10;17.30;;;8.80;99.90;;;;;;5054027;28;20244;-43
2021/04/20 00:16:40;;;;;;;21.23;18.95;;;8.80;99.90;;;;;;5053970;28;20618;-41
2021/04/20 00:19:08;;;;;;;20.08;17.90;;;8.80;99.90;;;;;;5053780;28;20222;-41
2021/04/20 00:21:35;;;;;;;24.52;20.02;;;8.70;99.90;;;;;;5053923;28;20208;-41
2021/04/20 00:24:04;;;;;;;25.50;21.85;;;8.70;99.90;;;;;;5054084;28;20248;-40
2021/04/20 00:26:31;;;;;;;28.17;21.92;;;8.70;99.90;;;;;;5053898;28;20652;-41
2021/04/20 00:28:58;;;;;;;22.38;19.20;;;8.70;99.90;;;;;;5053837;28;20247;-41
2021/04/20 00:31:25;;;;;;;21.63;19.35;;;8.70;99.90;;;;;;5053625;28;20239;-41
2021/04/20 00:33:52;;;;;;;20.33;18.20;;;8.70;99.90;;;;;;5053671;28;20204;-41
2021/04/20 00:36:19;;;;;;;21.33;19.17;;;8.70;99.90;;;;;;5053616;28;20239;-41
2021/04/20 00:38:47;;;;;;;24.27;20.90;;;8.70;99.90;;;;;;5053745;28;20243;-41
2021/04/20 00:41:14;;;;;;;20.60;18.15;;;8.70;99.90;;;;;;5053604;28;20254;-41
2021/04/20 00:43:45;;;;;;;22.20;19.80;;;8.60;99.90;;;;;;5053412;28;20299;-41
2021/04/20 00:46:13;;;;;;;23.45;20.92;;;8.60;99.90;;;;;;5053603;28;20306;-41
2021/04/20 00:48:41;;;;;;;22.27;19.80;;;8.60;99.90;;;;;;5053067;28;20658;-41
2021/04/20 00:51:09;;;;;;;21.55;19.25;;;8.60;99.90;;;;;;5053592;28;20208;-41
2021/04/20 00:53:37;;;;;;;22.20;19.80;;;8.70;99.90;;;;;;5053441;28;20578;-41
2021/04/20 00:56:05;;;;;;;22.10;19.35;;;8.70;99.90;;;;;;5053340;28;20291;-41
2021/04/20 00:58:32;;;;;;;23.23;19.90;;;8.80;99.90;;;;;;5052623;28;20204;-44
2021/04/20 01:01:00;;;;;;;24.45;21.00;;;8.70;99.90;;;;;;5052785;28;20210;-41
2021/04/20 01:03:27;;;;;;;24.42;19.52;;;8.70;99.90;;;;;;5052864;28;20212;-41
2021/04/20 01:05:55;;;;;;;22.35;18.65;;;8.70;99.90;;;;;;5053068;28;20567;-41
2021/04/20 01:08:25;;;;;;;22.48;19.48;;;8.70;99.90;;;;;;5052715;28;20267;-41
2021/04/20 01:10:54;;;;;;;22.75;20.42;;;8.60;99.90;;;;;;5052756;28;20658;-43
2021/04/20 01:13:23;;;;;;;23.58;21.08;;;8.60;99.90;;;;;;5052789;28;20208;-41
2021/04/20 01:15:51;;;;;;;26.63;22.15;;;8.60;99.90;;;;;;5052828;28;20746;-42
2021/04/20 01:18:22;;;;;;;24.88;20.67;;;8.60;99.90;;;;;;5052893;28;20262;-41
2021/04/20 01:20:52;;;;;;;23.58;21.02;;;8.60;99.90;;;;;;5053070;28;20299;-41
2021/04/20 01:23:27;;;;;;;23.45;20.92;;;8.60;99.90;;;;;;5052777;28;20204;-41
2021/04/20 01:25:56;;;;;;;24.85;22.23;;;8.60;99.90;;;;;;5052619;28;20207;-41
2021/04/20 01:28:23;;;;;;;24.55;21.65;;;8.60;99.90;;;;;;5052413;28;20288;-42
2021/04/20 01:30:50;;;;;;;23.35;20.90;;;8.70;99.90;;;;;;5052338;28;20279;-41
2021/04/20 01:33:18;;;;;;;24.55;21.30;;;8.70;99.90;;;;;;5052320;28;20295;-41
2021/04/20 01:35:45;;;;;;;23.48;20.20;;;8.70;99.90;;;;;;5052572;28;20303;-41
2021/04/20 01:38:12;;;;;;;24.40;21.60;;;8.70;99.90;;;;;;5052417;28;20232;-41
2021/04/20 01:40:39;;;;;;;23.20;19.80;;;8.60;99.90;;;;;;5052246;28;20594;-41
2021/04/20 01:43:07;;;;;;;25.05;20.88;;;8.60;99.90;;;;;;5052339;28;20311;-40
2021/04/20 01:45:34;;;;;;;23.17;20.83;;;8.60;99.90;;;;;;5052418;28;20230;-40
2021/04/20 01:48:01;;;;;;;23.52;20.25;;;8.60;99.90;;;;;;5052111;28;20714;-40
2021/04/20 01:50:28;;;;;;;23.73;20.90;;;8.60;99.90;;;;;;5052231;28;20215;-40
2021/04/20 01:52:55;;;;;;;24.27;21.48;;;8.60;99.90;;;;;;5052056;28;20239;-40
2021/04/20 01:55:22;;;;;;;23.73;21.17;;;8.60;99.90;;;;;;5051968;28;20675;-40
2021/04/20 01:57:52;;;;;;;23.75;21.20;;;8.60;99.90;;;;;;5052407;28;20239;-40
2021/04/20 02:00:22;;;;;;;24.05;21.50;;;8.60;99.90;;;;;;5052060;28;20686;-40
2021/04/20 02:02:49;;;;;;;25.45;22.42;;;8.50;99.90;;;;;;5052019;28;20295;-40
2021/04/20 02:05:16;;;;;;;26.65;21.85;;;8.50;99.90;;;;;;5052166;28;20287;-41
2021/04/20 02:07:44;;;;;;;22.88;20.52;;;8.60;99.90;;;;;;5051834;28;20338;-40
2021/04/20 02:10:13;;;;;;;24.88;22.17;;;8.60;99.90;;;;;;5051734;28;20212;-41
2021/04/20 02:12:40;;;;;;;23.60;21.05;;;8.60;99.90;;;;;;5052121;28;20211;-42
2021/04/20 02:15:10;;;;;;;23.65;20.80;;;8.60;99.90;;;;;;5052029;28;20289;-41
2021/04/20 02:17:39;;;;;;;25.38;22.27;;;8.50;99.90;;;;;;5052077;28;20295;-41
2021/04/20 02:20:08;;;;;;;25.63;22.48;;;8.50;99.90;;;;;;5051832;28;20215;-40
2021/04/20 02:22:36;;;;;;;22.85;20.45;;;8.50;99.90;;;;;;5051879;28;20247;-40
2021/04/20 02:25:06;;;;;;;25.85;21.63;;;8.40;99.90;;;;;;5052065;28;20254;-39
2021/04/20 02:27:34;;;;;;;25.73;21.48;;;8.40;99.90;;;;;;5051952;28;20309;-40
2021/04/20 02:30:02;;;;;;;24.75;22.08;;;8.40;99.90;;;;;;5051826;28;20248;-39
2021/04/20 02:32:29;;;;;;;27.00;22.65;;;8.40;99.90;;;;;;5051619;28;20275;-40
2021/04/20 02:35:00;;;;;;;26.60;23.02;;;8.40;99.90;;;;;;5051617;28;20294;-40
2021/04/20 02:37:28;;;;;;;26.05;23.25;;;8.40;99.90;;;;;;5051814;28;20286;-41
2021/04/20 02:39:56;;;;;;;29.85;24.67;;;8.40;99.90;;;;;;5051781;28;20207;-41
2021/04/20 02:42:25;;;;;;;28.50;24.92;;;8.40;99.90;;;;;;5051716;28;20287;-41
2021/04/20 02:44:53;;;;;;;28.02;24.83;;;8.30;99.90;;;;;;5051691;28;20747;-41
2021/04/20 02:47:21;;;;;;;27.48;24.48;;;8.30;99.90;;;;;;5051612;28;20315;-41
2021/04/20 02:49:48;;;;;;;29.75;24.23;;;8.40;99.90;;;;;;5051798;28;20277;-43
2021/04/20 02:52:17;;;;;;;26.65;23.90;;;8.40;99.90;;;;;;5051706;28;20231;-41
2021/04/20 02:54:45;;;;;;;28.35;24.90;;;8.40;99.90;;;;;;5051567;28;20238;-41
2021/04/20 02:57:12;;;;;;;28.20;24.13;;;8.30;99.90;;;;;;5051440;28;20593;-41
2021/04/20 02:59:40;;;;;;;29.05;25.38;;;8.30;99.90;;;;;;5051653;28;20208;-40
2021/04/20 03:02:10;;;;;;;27.70;24.67;;;8.30;99.90;;;;;;5051402;28;20303;-40
2021/04/20 03:04:37;;;;;;;30.23;25.60;;;8.30;99.90;;;;;;5051600;28;20277;-41
2021/04/20 03:07:05;;;;;;;29.42;24.45;;;8.30;99.90;;;;;;5051617;28;20291;-40
2021/04/20 03:09:35;;;;;;;29.75;25.50;;;8.20;99.90;;;;;;5051506;28;20303;-40
2021/04/20 03:12:02;;;;;;;29.27;25.63;;;8.20;99.90;;;;;;5051300;28;20208;-41
2021/04/20 03:14:30;;;;;;;29.13;25.85;;;8.20;99.90;;;;;;5051335;28;20304;-40
2021/04/20 03:16:57;;;;;;;28.52;25.42;;;8.20;99.90;;;;;;5051446;28;20205;-40
2021/04/20 03:19:24;;;;;;;29.42;26.00;;;8.20;99.90;;;;;;5051250;28;20204;-41
2021/04/20 03:21:51;;;;;;;31.73;26.42;;;8.30;99.90;;;;;;5051478;28;20262;-40
2021/04/20 03:24:39;;;;;;;30.10;26.08;;;8.30;99.90;;;;;;5054849;28;20208;-41
2021/04/20 03:27:07;;;;;;;30.15;25.58;;;8.30;99.90;;;;;;5054647;28;20236;-41
2021/04/20 03:29:35;;;;;;;30.58;25.23;;;8.20;99.90;;;;;;5055037;28;20208;-41
2021/04/20 03:32:02;;;;;;;30.73;26.45;;;8.20;99.90;;;;;;5054700;28;20279;-41
2021/04/20 03:34:36;;;;;;;29.67;25.50;;;8.20;99.90;;;;;;5054849;28;20208;-41
2021/04/20 03:37:06;;;;;;;32.47;26.95;;;8.10;99.90;;;;;;5054858;28;20208;-40
2021/04/20 03:39:36;;;;;;;31.00;26.65;;;8.10;99.90;;;;;;5054604;28;20247;-40
2021/04/20 03:42:06;;;;;;;31.83;26.45;;;8.10;99.90;;;;;;5055059;28;20235;-40
2021/04/20 03:44:40;;;;;;;33.50;27.77;;;8.10;99.90;;;;;;5054775;28;20247;-41
2021/04/20 03:47:18;;;;;;;32.15;27.05;;;8.20;99.90;;;;;;5054573;28;20246;-39
2021/04/20 03:49:48;;;;;;;31.08;26.80;;;8.20;99.90;;;;;;5054528;28;20208;-40
2021/04/20 03:52:20;;;;;;;30.40;25.92;;;8.20;99.90;;;;;;5054678;28;20215;-39
2021/04/20 03:54:49;;;;;;;31.15;26.42;;;8.20;99.90;;;;;;5054422;28;20257;-40
2021/04/20 03:57:18;;;;;;;31.88;27.02;;;8.20;99.90;;;;;;5054388;28;20296;-40
2021/04/20 03:59:47;;;;;;;32.03;26.77;;;8.20;99.90;;;;;;5054362;28;20204;-40
2021/04/20 04:02:15;;;;;;;31.48;26.30;;;8.20;99.90;;;;;;5053909;28;20247;-40
2021/04/20 04:04:45;;;;;;;32.80;29.23;;;8.20;99.90;;;;;;5054142;28;20548;-40
2021/04/20 04:07:15;;;;;;;35.30;28.55;;;8.20;99.90;;;;;;5053623;28;20754;-40
2021/04/20 04:09:45;;;;;;;36.03;30.52;;;8.20;99.90;;;;;;5053773;28;20208;-41
2021/04/20 04:12:15;;;;;;;37.80;29.45;;;8.20;99.90;;;;;;5054379;28;20248;-46
2021/04/20 04:14:43;;;;;;;31.77;26.88;;;8.30;99.90;;;;;;5053872;28;20269;-40
2021/04/20 04:17:15;;;;;;;30.58;26.67;;;8.30;99.90;;;;;;5053690;28;20639;-40
2021/04/20 04:19:45;;;;;;;35.92;28.25;;;8.30;99.90;;;;;;5053890;28;20216;-40
2021/04/20 04:22:14;;;;;;;39.38;31.00;;;8.30;99.90;;;;;;5053878;28;20212;-40
2021/04/20 04:24:46;;;;;;;33.97;28.00;;;8.30;99.90;;;;;;5052850;28;20291;-41
2021/04/20 04:27:14;;;;;;;33.80;28.77;;;8.30;99.90;;;;;;5053480;28;20212;-42
2021/04/20 04:29:42;;;;;;;35.45;28.80;;;8.30;99.90;;;;;;5053668;28;20258;-42
2021/04/20 04:32:11;;;;;;;33.25;28.55;;;8.30;99.90;;;;;;5053187;28;20275;-41
2021/04/20 04:34:40;;;;;;;38.05;31.02;;;8.30;99.90;;;;;;5053519;28;20269;-41
2021/04/20 04:37:09;;;;;;;38.30;30.13;;;8.30;99.90;;;;;;5053759;28;20294;-41
2021/04/20 04:39:36;;;;;;;35.05;27.75;;;8.30;99.90;;;;;;5053779;28;20250;-40
2021/04/20 04:42:04;;;;;;;40.33;29.55;;;8.30;99.90;;;;;;5053385;28;20212;-41
2021/04/20 04:44:31;;;;;;;32.63;27.40;;;8.30;99.90;;;;;;5053612;28;20294;-41
2021/04/20 04:46:58;;;;;;;33.70;27.92;;;8.30;99.90;;;;;;5053494;28;20251;-40
2021/04/20 04:49:27;;;;;;;34.88;27.90;;;8.30;99.90;;;;;;5053514;28;20687;-40
2021/04/20 04:51:55;;;;;;;33.67;30.08;;;8.30;99.90;;;;;;5053442;28;20582;-41
2021/04/20 04:54:22;;;;;;;37.28;30.90;;;8.30;99.90;;;;;;5053479;28;20216;-40
2021/04/20 04:56:51;;;;;;;36.47;29.02;;;8.30;99.90;;;;;;5053013;28;20566;-40
2021/04/20 04:59:20;;;;;;;33.08;28.15;;;8.30;99.90;;;;;;5053160;28;20230;-41
2021/04/20 05:01:48;;;;;;;34.42;28.77;;;8.30;99.90;;;;;;5053343;28;20568;-41
2021/04/20 05:04:16;;;;;;;36.05;28.83;;;8.30;99.90;;;;;;5052841;28;20659;-41
2021/04/20 05:06:48;;;;;;;34.35;29.27;;;8.30;99.90;;;;;;5052914;28;20207;-41
2021/04/20 05:09:17;;;;;;;36.80;29.77;;;8.30;99.90;;;;;;5052785;28;20263;-40
2021/04/20 05:11:45;;;;;;;32.47;28.25;;;8.30;99.90;;;;;;5052762;28;20294;-41
2021/04/20 05:14:13;;;;;;;42.63;32.55;;;8.30;99.90;;;;;;5052859;28;20212;-41
2021/04/20 05:16:41;;;;;;;38.47;31.17;;;8.30;99.90;;;;;;5052880;28;20741;-42
2021/04/20 05:19:11;;;;;;;36.65;29.40;;;8.30;99.90;;;;;;5052799;28;20204;-42
2021/04/20 05:21:40;;;;;;;33.88;29.60;;;8.30;99.90;;;;;;5052459;28;20212;-42
2021/04/20 05:24:08;;;;;;;36.25;29.80;;;8.30;99.90;;;;;;5052816;28;20303;-41
2021/04/20 05:26:35;;;;;;;34.72;28.23;;;8.30;99.90;;;;;;5052828;28;20236;-42
2021/04/20 05:29:04;;;;;;;33.25;29.00;;;8.30;99.90;;;;;;5052626;28;20336;-42
2021/04/20 05:31:32;;;;;;;34.80;29.52;;;8.30;99.90;;;;;;5052471;28;20326;-42
2021/04/20 05:34:00;;;;;;;36.28;29.40;;;8.40;99.90;;;;;;5052265;28;20208;-40
2021/04/20 05:36:28;;;;;;;41.80;30.15;;;8.40;99.90;;;;;;5052324;28;20254;-40
2021/04/20 05:38:59;;;;;;;33.45;28.60;;;8.40;99.90;;;;;;5052562;28;20234;-40
2021/04/20 05:41:29;;;;;;;35.33;27.60;;;8.50;99.90;;;;;;5052388;28;20290;-41
2021/04/20 05:43:57;;;;;;;35.20;29.65;;;8.50;99.90;;;;;;5052385;28;20706;-41
2021/04/20 05:46:25;;;;;;;35.72;30.27;;;8.60;99.90;;;;;;5051859;28;20299;-41
2021/04/20 05:48:54;;;;;;;37.10;30.75;;;8.70;99.90;;;;;;5051807;28;20262;-41
2021/04/20 05:51:22;;;;;;;30.92;27.30;;;8.80;99.90;;;;;;5052417;28;20239;-40
2021/04/20 05:53:52;;;;;;;34.58;27.25;;;8.90;99.90;;;;;;5052127;28;20642;-41
2021/04/20 05:56:22;;;;;;;34.65;28.00;;;8.90;99.90;;;;;;5052135;28;20235;-42
2021/04/20 05:58:52;;;;;;;35.38;28.23;;;9.00;99.90;;;;;;5052114;28;20582;-41
2021/04/20 06:01:20;;;;;;;32.40;26.55;;;9.00;99.90;;;;;;5052160;28;20290;-41
2021/04/20 06:03:48;;;;;;;34.60;26.75;;;9.10;99.90;;;;;;5052205;28;20570;-41
2021/04/20 06:06:18;;;;;;;34.15;26.85;;;9.20;99.90;;;;;;5052246;28;20258;-42
2021/04/20 06:08:47;;;;;;;31.00;27.55;;;9.30;99.90;;;;;;5051756;28;20797;-41
2021/04/20 06:11:15;;;;;;;34.67;28.88;;;9.40;99.90;;;;;;5051870;28;20628;-42
2021/04/20 06:13:42;;;;;;;30.85;26.35;;;9.40;99.90;;;;;;5051883;28;20216;-42
2021/04/20 06:16:10;;;;;;;34.42;28.13;;;9.50;99.90;;;;;;5052171;28;20240;-43
2021/04/20 06:18:39;;;;;;;31.77;26.83;;;9.50;99.90;;;;;;5051884;28;20208;-42
2021/04/20 06:21:08;;;;;;;33.80;26.67;;;9.60;99.90;;;;;;5052256;28;20219;-42
2021/04/20 06:23:37;;;;;;;30.35;26.88;;;9.60;99.90;;;;;;5051871;28;20243;-43
2021/04/20 06:26:06;;;;;;;33.85;29.17;;;9.70;99.90;;;;;;5051818;28;20203;-42
2021/04/20 06:28:36;;;;;;;31.17;26.85;;;9.70;99.90;;;;;;5052139;28;20242;-43
2021/04/20 06:31:05;;;;;;;32.28;27.35;;;9.70;99.90;;;;;;5051744;28;20301;-42
2021/04/20 06:33:35;;;;;;;32.90;28.50;;;9.80;99.90;;;;;;5051916;28;20246;-42
2021/04/20 06:36:05;;;;;;;34.03;28.45;;;9.80;99.90;;;;;;5051897;28;20307;-44
2021/04/20 06:38:33;;;;;;;34.08;26.85;;;9.90;99.90;;;;;;5051399;28;20216;-42
2021/04/20 06:41:03;;;;;;;34.47;27.60;;;9.90;99.90;;;;;;5051451;28;20208;-41
2021/04/20 06:43:55;;;;;;;33.72;27.20;;;10.00;99.90;;;;;;5051407;28;20235;-42
2021/04/20 06:46:28;;;;;;;32.92;27.60;;;10.00;99.90;;;;;;5051249;28;20679;-42
2021/04/20 06:49:02;;;;;;;29.98;25.05;;;10.10;99.90;;;;;;5051187;28;20588;-44
2021/04/20 06:51:38;;;;;;;32.20;26.75;;;10.30;99.90;;;;;;5051604;28;20208;-46
2021/04/20 06:54:13;;;;;;;30.63;26.92;;;10.40;99.90;;;;;;5051510;28;20685;-48
2021/04/20 06:56:47;;;;;;;29.15;25.83;;;10.50;99.90;;;;;;5051528;28;20302;-44
2021/04/20 06:59:23;;;;;;;32.38;26.90;;;10.70;99.90;;;;;;5055185;28;20305;-45
2021/04/20 07:01:54;;;;;;;31.40;26.02;;;10.90;99.90;;;;;;5055273;28;20625;-42
2021/04/20 07:04:28;;;;;;;32.33;27.13;;;11.10;99.90;;;;;;5055128;28;20311;-41
2021/04/20 07:07:08;;;;;;;30.80;27.23;;;11.30;99.90;;;;;;5055014;28;20258;-40
2021/04/20 07:09:42;;;;;;;29.95;26.17;;;11.50;99.90;;;;;;5054580;28;20270;-42
2021/04/20 07:12:13;;;;;;;30.13;26.92;;;11.50;99.90;;;;;;5054927;28;20306;-41
2021/04/20 07:14:46;;;;;;;31.98;27.52;;;11.40;99.90;;;;;;5054876;28;20247;-43
2021/04/20 07:17:25;;;;;;;28.90;25.13;;;11.40;99.90;;;;;;5054727;28;20303;-42
2021/04/20 07:20:10;;;;;;;28.05;24.85;;;11.40;99.90;;;;;;5054888;28;20211;-43
2021/04/20 07:23:08;;;;;;;31.60;27.02;;;11.40;99.90;;;;;;5054777;28;20319;-43
2021/04/20 07:25:59;;;;;;;31.77;26.85;;;11.40;99.90;;;;;;5054567;28;20212;-43
2021/04/20 07:28:37;;;;;;;29.80;23.42;;;11.50;99.90;;;;;;5054501;28;20333;-42
2021/04/20 07:31:10;;;;;;;30.83;26.67;;;11.60;99.90;;;;;;5054644;28;20282;-46
2021/04/20 07:33:55;;;;;;;34.90;27.83;;;11.70;99.90;;;;;;5054443;28;20643;-49
2021/04/20 07:36:33;;;;;;;30.02;26.75;;;11.80;99.90;;;;;;5054305;28;20219;-43
2021/04/20 07:39:07;;;;;;;30.55;25.55;;;11.80;99.90;;;;;;5054214;28;20299;-42
2021/04/20 07:41:42;;;;;;;29.15;24.67;;;11.80;99.90;;;;;;5054247;28;20705;-43
2021/04/20 07:44:13;;;;;;;32.47;26.52;;;11.70;99.90;;;;;;5054286;28;20211;-42
2021/04/20 07:46:48;;;;;;;28.85;25.48;;;11.60;99.90;;;;;;5054169;28;20203;-42
2021/04/20 07:49:21;;;;;;;27.63;24.63;;;11.70;99.90;;;;;;5053606;28;20652;-42
2021/04/20 07:51:59;;;;;;;30.70;25.98;;;11.80;99.90;;;;;;5054013;28;20218;-42
2021/04/20 07:54:36;;;;;;;29.33;26.17;;;11.90;99.90;;;;;;5053957;28;20543;-43
2021/04/20 07:57:10;;;;;;;32.10;27.98;;;11.90;99.90;;;;;;5053889;28;20277;-43
2021/04/20 07:59:44;;;;;;;29.75;26.65;;;12.00;99.90;;;;;;5054024;28;20300;-43
2021/04/20 08:02:24;;;;;;;31.17;26.27;;;12.10;99.90;;;;;;5053999;28;20215;-41
2021/04/20 08:04:59;;;;;;;28.58;25.50;;;12.20;99.90;;;;;;5054063;28;20211;-41
2021/04/20 08:07:36;;;;;;;27.20;24.30;;;12.30;99.90;;;;;;5053975;28;20289;-44
2021/04/20 08:10:07;;;;;;;27.98;25.02;;;12.30;99.90;;;;;;5053542;28;20227;-41
2021/04/20 08:12:41;;;;;;;28.95;25.13;;;12.30;99.90;;;;;;5053814;28;20666;-42
2021/04/20 08:15:12;;;;;;;28.10;25.20;;;12.40;99.90;;;;;;5053749;28;20688;-41
2021/04/20 08:17:47;;;;;;;29.58;25.42;;;12.40;99.90;;;;;;5053693;28;20647;-42
2021/04/20 08:20:16;;;;;;;34.05;26.52;;;12.40;99.90;;;;;;5053686;28;20306;-42
2021/04/20 08:22:45;;;;;;;29.17;25.00;;;12.40;99.90;;;;;;5053542;28;20302;-43
2021/04/20 08:25:19;;;;;;;31.55;25.55;;;12.50;99.90;;;;;;5053801;28;20581;-44
2021/04/20 08:27:56;;;;;;;29.00;25.05;;;12.80;99.90;;;;;;5053396;28;20261;-44
2021/04/20 08:30:37;;;;;;;29.27;24.58;;;13.20;99.90;;;;;;5053610;28;20215;-45
2021/04/20 08:33:14;;;;;;;30.95;25.52;;;13.50;99.70;;;;;;5053219;28;20298;-45
2021/04/20 08:35:43;;;;;;;27.10;23.98;;;13.50;99.40;;;;;;5053617;28;20207;-43
2021/04/20 08:38:32;;;;;;;26.88;23.88;;;13.50;99.40;;;;;;5053508;28;20243;-43
2021/04/20 08:41:05;;;;;;;29.45;24.10;;;13.50;99.40;;;;;;5053461;28;20243;-43
2021/04/20 08:43:47;;;;;;;27.27;24.33;;;13.30;99.40;;;;;;5053334;28;20251;-48
2021/04/20 08:46:27;;;;;;;26.80;23.65;;;13.20;99.50;;;;;;5053455;28;20251;-42
2021/04/20 08:49:01;;;;;;;26.13;23.30;;;13.10;99.70;;;;;;5053185;28;20228;-42
2021/04/20 08:51:41;;;;;;;28.23;24.10;;;13.00;99.80;;;;;;5053169;28;20607;-43
2021/04/20 08:54:40;;;;;;;27.13;24.02;;;13.00;99.70;;;;;;5052971;28;20307;-43
2021/04/20 08:57:16;;;;;;;25.52;22.83;;;13.00;99.40;;;;;;5053066;28;20208;-46
2021/04/20 09:00:10;;;;;;;26.48;23.10;;;13.00;99.30;;;;;;5053125;28;20744;-44
2021/04/20 09:02:51;;;;;;;28.02;24.10;;;13.20;99.00;;;;;;5049734;28;20243;-45
2021/04/20 09:05:23;;;;;;;27.65;24.30;;;13.20;99.10;;;;;;5053044;28;20216;-45
2021/04/20 09:07:57;;;;;;;26.60;22.63;;;13.20;99.10;;;;;;5052707;28;20261;-44
2021/04/20 09:10:31;;;;;;;30.95;23.88;;;13.30;99.00;;;;;;5052550;28;20615;-43
2021/04/20 09:13:05;;;;;;;27.63;23.70;;;13.30;98.70;;;;;;5052657;28;20629;-43
2021/04/20 09:15:36;;;;;;;25.60;22.73;;;13.30;99.00;;;;;;5052512;28;20218;-45
2021/04/20 09:18:06;;;;;;;26.40;23.38;;;13.30;98.70;;;;;;5052539;28;20295;-45
2021/04/20 09:20:50;;;;;;;25.92;22.48;;;13.40;98.60;;;;;;5051555;28;20230;-44
2021/04/20 09:23:26;;;;;;;26.63;23.05;;;13.40;98.50;;;;;;5052117;28;20204;-45
2021/04/20 09:26:02;;;;;;;26.80;22.95;;;13.40;98.30;;;;;;5052368;28;20306;-43
2021/04/20 09:28:37;;;;;;;25.60;22.95;;;13.40;98.30;;;;;;5052382;28;20227;-43
2021/04/20 09:31:10;;;;;;;25.15;22.45;;;13.40;98.10;;;;;;5052084;28;20236;-42
2021/04/20 09:33:42;;;;;;;25.58;22.98;;;13.50;98.20;;;;;;5052124;28;20212;-43
2021/04/20 09:36:11;;;;;;;26.38;23.15;;;13.70;97.90;;;;;;5052344;28;20211;-43
2021/04/20 09:38:41;;;;;;;26.10;23.10;;;14.00;97.50;;;;;;5052009;28;20230;-46
2021/04/20 09:41:10;;;;;;;26.05;23.27;;;14.30;96.90;;;;;;5052099;28;20304;-43
2021/04/20 09:43:49;;;;;;;26.95;23.52;;;14.50;96.60;;;;;;5051957;28;20214;-43
2021/04/20 09:46:24;;;;;;;25.10;22.60;;;14.70;96.20;;;;;;5051752;28;20207;-44
2021/04/20 09:49:01;;;;;;;24.75;21.88;;;15.10;95.60;;;;;;5051974;28;20328;-43
2021/04/20 09:51:35;;;;;;;24.55;22.08;;;15.60;95.00;;;;;;5051704;28;20578;-43
2021/04/20 09:54:10;;;;;;;27.00;23.48;;;15.80;94.40;;;;;;5051842;28;20315;-43
2021/04/20 09:56:41;;;;;;;24.23;21.83;;;15.80;93.90;;;;;;5051741;28;20234;-45
2021/04/20 09:59:24;;;;;;;25.35;22.73;;;15.60;94.00;;;;;;5051932;28;20227;-43
2021/04/20 10:02:03;;;;;;;25.10;22.48;;;15.40;94.10;;;;;;5051850;28;20299;-46
2021/04/20 10:04:49;;;;;;;23.73;21.27;;;15.30;94.00;;;;;;5051911;28;20678;-43
2021/04/20 10:07:32;;;;;;;24.50;21.80;;;15.30;93.90;;;;;;5050981;28;20215;-41
2021/04/20 10:10:06;;;;;;;23.45;21.08;;;15.50;93.60;;;;;;5051836;28;20315;-42
2021/04/20 10:12:58;;;;;;;24.33;21.73;;;15.60;93.20;;;;;;5051663;28;20211;-40
2021/04/20 10:15:30;;;;;;;23.15;20.65;;;15.60;93.00;;;;;;5051642;28;20208;-43
2021/04/20 10:18:04;;;;;;;23.25;20.75;;;15.60;92.80;;;;;;5051718;28;20291;-44
2021/04/20 10:20:38;;;;;;;23.67;20.48;;;15.40;92.50;;;;;;5051454;28;20291;-43
2021/04/20 10:23:17;;;;;;;23.13;20.80;;;15.10;92.90;;;;;;5051562;28;20249;-44
2021/04/20 10:26:09;;;;;;;23.30;20.88;;;15.30;93.00;;;;;;5051791;28;20291;-41
2021/04/20 10:28:45;;;;;;;24.55;22.02;;;15.40;92.60;;;;;;5051678;28;20232;-44
2021/04/20 10:31:18;;;;;;;23.23;20.88;;;15.50;92.30;;;;;;5052054;28;20322;-44
2021/04/20 10:33:50;;;;;;;24.92;22.15;;;15.80;92.00;;;;;;5055450;28;20208;-43
2021/04/20 10:36:20;;;;;;;23.02;20.58;;;16.00;91.60;;;;;;5055396;28;20303;-45
2021/04/20 10:38:48;;;;;;;22.63;19.33;;;16.20;91.20;;;;;;5055833;28;20208;-44
2021/04/20 10:41:25;;;;;;;22.45;20.13;;;16.20;90.90;;;;;;5055584;28;20254;-45
2021/04/20 10:43:54;;;;;;;23.33;21.13;;;16.30;90.50;;;;;;5055694;28;20237;-44
2021/04/20 10:46:24;;;;;;;22.52;20.20;;;16.40;90.20;;;;;;5055543;28;20303;-44
2021/04/20 10:48:54;;;;;;;23.25;20.60;;;16.50;89.80;;;;;;5055248;28;20318;-43
2021/04/20 10:51:30;;;;;;;21.42;19.23;;;16.50;89.50;;;;;;5055506;28;20307;-46
2021/04/20 10:53:58;;;;;;;24.13;21.73;;;16.50;89.00;;;;;;5055430;28;20580;-42
2021/04/20 10:56:26;;;;;;;23.95;21.55;;;16.60;88.80;;;;;;5055268;28;20234;-45
2021/04/20 10:58:56;;;;;;;26.58;23.73;;;16.70;88.50;;;;;;5055139;28;20254;-43
2021/04/20 11:01:27;;;;;;;26.27;20.58;;;16.80;87.70;;;;;;5055510;28;20222;-43
2021/04/20 11:03:56;;;;;;;23.30;20.90;;;16.70;87.70;;;;;;5054996;28;20557;-43
2021/04/20 11:07:01;;;;;;;22.63;20.33;;;16.70;87.50;;;;;;5055106;28;20265;-43
2021/04/20 11:09:30;;;;;;;22.98;20.65;;;16.90;86.70;;;;;;5054272;28;20262;-46
2021/04/20 11:11:57;;;;;;;20.80;18.60;;;17.00;86.40;;;;;;5054892;28;20684;-43
2021/04/20 11:14:38;;;;;;;22.33;20.02;;;17.10;85.70;;;;;;5055020;28;20645;-43
2021/04/20 11:17:12;;;;;;;41.25;34.67;;;17.10;84.50;;;;;;5054702;28;20372;-43
2021/04/20 11:19:45;;;;;;;29.75;26.60;;;17.00;85.20;;;;;;5054636;28;20230;-46
2021/04/20 11:22:14;;;;;;;23.70;21.30;;;17.00;85.10;;;;;;5054920;28;20196;-43
2021/04/20 11:24:46;;;;;;;37.42;29.98;;;17.10;85.00;;;;;;5054647;28;20208;-44
2021/04/20 11:27:15;;;;;;;23.55;21.15;;;17.10;84.70;;;;;;5054497;28;20265;-43
2021/04/20 11:29:50;;;;;;;21.13;18.90;;;17.10;84.30;;;;;;5054391;28;20754;-42
2021/04/20 11:32:24;;;;;;;20.95;18.85;;;17.00;84.40;;;;;;5054268;28;20243;-42
2021/04/20 11:34:55;;;;;;;21.95;19.70;;;16.90;84.50;;;;;;5054395;28;20584;-43
2021/04/20 11:37:24;;;;;;;23.63;19.00;;;16.90;84.10;;;;;;5054687;28;20298;-42
2021/04/20 11:39:56;;;;;;;29.20;25.02;;;17.00;83.60;;;;;;5054326;28;20299;-43
2021/04/20 11:42:27;;;;;;;21.05;18.23;;;17.00;82.90;;;;;;5054202;28;20563;-41
2021/04/20 11:44:59;;;;;;;20.15;17.98;;;17.00;82.40;;;;;;5053412;28;20204;-42
2021/04/20 11:47:27;;;;;;;20.75;18.65;;;16.70;82.80;;;;;;5054032;28;20307;-42
2021/04/20 11:49:57;;;;;;;19.10;17.08;;;16.50;82.80;;;;;;5054150;28;20616;-43
2021/04/20 11:52:28;;;;;;;19.13;17.13;;;16.30;83.30;;;;;;5054523;28;20690;-45
2021/04/20 11:54:58;;;;;;;46.30;35.13;;;16.20;83.30;;;;;;5054230;28;20243;-42
2021/04/20 11:57:27;;;;;;;23.85;21.25;;;16.00;83.60;;;;;;5054075;28;20377;-44
2021/04/20 11:59:56;;;;;;;18.50;16.48;;;16.00;83.70;;;;;;5054300;28;20208;-43
2021/04/20 12:02:28;;;;;;;18.35;16.45;;;16.20;83.30;;;;;;5054217;28;20605;-43
2021/04/20 12:05:01;;;;;;;21.23;18.90;;;16.20;82.40;;;;;;5054228;28;20218;-43
2021/04/20 12:07:29;;;;;;;21.20;18.90;;;16.30;81.60;;;;;;5053893;28;20215;-41
2021/04/20 12:09:57;;;;;;;18.33;16.00;;;16.40;81.20;;;;;;5053739;28;20224;-42
2021/04/20 12:12:29;;;;;;;34.72;22.30;;;16.60;80.60;;;;;;5053877;28;20299;-41
2021/04/20 12:14:58;;;;;;;19.73;16.35;;;16.90;79.90;;;;;;5054025;28;20219;-42
2021/04/20 12:17:30;;;;;;;19.17;17.20;;;17.00;79.90;;;;;;5053948;28;20423;-41
2021/04/20 12:19:59;;;;;;;18.92;17.05;;;17.10;78.70;;;;;;5053840;28;20294;-41
2021/04/20 12:22:27;;;;;;;17.52;15.60;;;17.10;78.50;;;;;;5053596;28;20303;-41
2021/04/20 12:24:56;;;;;;;19.10;17.10;;;17.20;77.80;;;;;;5053740;28;20215;-41
2021/04/20 12:27:25;;;;;;;18.08;16.25;;;17.40;76.90;;;;;;5053717;28;20303;-41
2021/04/20 12:29:54;;;;;;;17.35;15.63;;;17.50;76.30;;;;;;5053529;28;20748;-42
2021/04/20 12:32:40;;;;;;;18.27;16.48;;;17.60;76.00;;;;;;5053281;28;20649;-40
2021/04/20 12:35:08;;;;;;;17.80;16.20;;;17.80;76.30;;;;;;5053339;28;20681;-40
2021/04/20 12:37:37;;;;;;;17.67;15.95;;;18.00;74.80;;;;;;5053597;28;20208;-40
2021/04/20 12:40:09;;;;;;;17.40;15.60;;;18.20;73.90;;;;;;5053333;28;20204;-40
2021/04/20 12:42:39;;;;;;;19.23;17.15;;;18.30;72.80;;;;;;5052997;28;20697;-41
2021/04/20 12:45:10;;;;;;;18.90;17.00;;;18.20;72.60;;;;;;5053252;28;20212;-41
2021/04/20 12:47:40;;;;;;;19.17;17.17;;;18.20;72.50;;;;;;5053034;28;20250;-40
2021/04/20 12:50:10;;;;;;;21.02;18.92;;;18.40;72.10;;;;;;5052921;28;20605;-40
2021/04/20 12:52:41;;;;;;;23.75;21.45;;;18.60;72.30;;;;;;5052994;28;20236;-40
2021/04/20 12:55:12;;;;;;;22.73;20.50;;;18.50;73.30;;;;;;5052837;28;20722;-40